createdAt,value
2018-09-22T00:01:44.665Z,9.53
2018-09-22T00:04:16.060Z,8.80
2018-09-22T00:06:46.503Z,8.83
2018-09-22T00:09:18.152Z,8.93
2018-09-22T00:11:49.693Z,9.03
2018-09-22T00:14:20.821Z,8.83
2018-09-22T00:16:51.970Z,9.33
2018-09-22T00:19:23.274Z,9.37
2018-09-22T00:21:54.643Z,9.13
2018-09-22T00:24:25.699Z,9.87
2018-09-22T00:26:56.298Z,8.83
2018-09-22T00:29:27.491Z,8.80
2018-09-22T00:31:58.544Z,9.27
2018-09-22T00:34:29.364Z,9.77
2018-09-22T00:37:00.987Z,9.70
2018-09-22T00:39:31.167Z,8.93
2018-09-22T00:42:02.370Z,10.30
2018-09-22T00:44:33.368Z,8.83
2018-09-22T00:47:04.183Z,8.90
2018-09-22T00:49:35.340Z,8.93
2018-09-22T00:52:06.396Z,9.27
2018-09-22T00:54:37.738Z,9.33
2018-09-22T00:57:09.309Z,9.40
2018-09-22T00:59:40.433Z,9.20
2018-09-22T01:02:11.588Z,8.70
2018-09-22T01:04:43.271Z,9.30
2018-09-22T01:07:15.735Z,8.87
2018-09-22T01:09:46.494Z,9.17
2018-09-22T01:12:18.215Z,9.37
2018-09-22T01:14:49.932Z,9.27
2018-09-22T01:17:20.915Z,9.37
2018-09-22T01:19:52.428Z,8.47
2018-09-22T01:22:23.370Z,9.23
2018-09-22T01:24:54.846Z,9.07
2018-09-22T01:27:25.916Z,8.90
2018-09-22T01:29:56.992Z,9.43
2018-09-22T01:32:28.259Z,8.87
2018-09-22T01:34:59.232Z,9.77
2018-09-22T01:37:30.726Z,9.17
2018-09-22T01:40:02.353Z,8.70
2018-09-22T01:42:33.783Z,8.87
2018-09-22T01:45:04.963Z,8.80
2018-09-22T01:47:35.394Z,9.30
2018-09-22T01:50:07.004Z,8.97
2018-09-22T01:52:37.983Z,9.10
2018-09-22T01:55:09.434Z,9.00
2018-09-22T01:57:40.645Z,8.73
2018-09-22T02:00:11.810Z,8.90
2018-09-22T02:02:43.367Z,9.80
2018-09-22T02:05:14.814Z,8.77
2018-09-22T02:07:46.363Z,9.53
2018-09-22T02:10:17.919Z,9.13
2018-09-22T02:12:49.031Z,9.23
2018-09-22T02:15:20.281Z,9.03
2018-09-22T02:17:51.736Z,9.00
2018-09-22T02:20:23.003Z,8.80
2018-09-22T02:22:53.393Z,9.70
2018-09-22T02:25:24.613Z,10.77
2018-09-22T02:27:55.444Z,9.97
2018-09-22T02:30:26.490Z,10.20
2018-09-22T02:32:56.556Z,9.70
2018-09-22T02:35:26.764Z,9.13
2018-09-22T02:37:57.765Z,10.07
2018-09-22T02:40:28.726Z,10.83
2018-09-22T02:42:59.613Z,10.03
2018-09-22T02:45:31.201Z,9.77
2018-09-22T02:48:02.405Z,10.73
2018-09-22T02:50:33.743Z,10.27
2018-09-22T02:53:05.165Z,9.80
2018-09-22T02:55:36.568Z,9.93
2018-09-22T02:58:08.034Z,10.90
2018-09-22T03:00:39.278Z,10.70
2018-09-22T03:03:10.296Z,10.77
2018-09-22T03:05:41.467Z,10.00
2018-09-22T03:08:12.854Z,9.53
2018-09-22T03:10:44.071Z,10.30
2018-09-22T03:13:15.755Z,11.20
2018-09-22T03:15:47.190Z,10.07
2018-09-22T03:18:18.566Z,9.70
2018-09-22T03:20:49.357Z,9.20
2018-09-22T03:23:20.665Z,9.17
2018-09-22T03:25:51.609Z,9.77
2018-09-22T03:28:22.629Z,10.13
2018-09-22T03:30:53.921Z,10.60
2018-09-22T03:33:25.535Z,9.70
2018-09-22T03:35:56.112Z,10.03
2018-09-22T03:38:27.279Z,9.80
2018-09-22T03:40:58.623Z,10.00
2018-09-22T03:43:29.659Z,9.53
2018-09-22T03:46:00.970Z,9.47
2018-09-22T03:48:32.397Z,9.80
2018-09-22T03:51:02.947Z,9.53
2018-09-22T03:53:34.293Z,9.40
2018-09-22T03:56:05.782Z,9.60
2018-09-22T03:58:35.900Z,9.57
2018-09-22T04:01:06.959Z,10.17
2018-09-22T04:03:37.260Z,10.87
2018-09-22T04:06:08.327Z,10.33
2018-09-22T04:08:39.746Z,10.03
2018-09-22T04:11:11.370Z,10.27
2018-09-22T04:13:43.193Z,10.50
2018-09-22T04:16:14.885Z,11.77
2018-09-22T04:18:45.744Z,11.20
2018-09-22T04:21:17.012Z,11.13
2018-09-22T04:23:48.688Z,10.87
2018-09-22T04:26:19.878Z,11.13
2018-09-22T04:28:51.043Z,11.00
2018-09-22T04:31:22.108Z,14.67
2018-09-22T04:33:53.262Z,12.23
2018-09-22T04:36:23.505Z,11.47
2018-09-22T04:38:53.703Z,11.00
2018-09-22T04:41:24.181Z,11.60
2018-09-22T04:43:54.532Z,11.23
2018-09-22T04:46:25.645Z,11.73
2018-09-22T04:48:56.130Z,13.13
2018-09-22T04:51:26.965Z,11.60
2018-09-22T04:53:57.609Z,11.40
2018-09-22T04:56:27.932Z,11.33
2018-09-22T04:58:58.267Z,12.13
2018-09-22T05:01:28.802Z,14.23
2018-09-22T05:03:59.030Z,13.73
2018-09-22T05:06:29.227Z,12.60
2018-09-22T05:08:59.712Z,13.77
2018-09-22T05:11:30.094Z,13.37
2018-09-22T05:14:00.451Z,11.70
2018-09-22T05:16:31.271Z,10.97
2018-09-22T05:19:01.441Z,11.70
2018-09-22T05:21:32.324Z,11.30
2018-09-22T05:24:02.342Z,14.97
2018-09-22T05:26:32.553Z,17.27
2018-09-22T05:29:02.731Z,13.77
2018-09-22T05:31:32.974Z,13.60
2018-09-22T05:34:03.239Z,13.70
2018-09-22T05:36:33.331Z,12.70
2018-09-22T05:39:03.430Z,13.47
2018-09-22T05:41:33.648Z,12.90
2018-09-22T05:44:03.807Z,13.73
2018-09-22T05:46:34.050Z,12.43
2018-09-22T05:49:04.593Z,13.00
2018-09-22T05:51:36.408Z,12.37
2018-09-22T05:54:06.355Z,11.80
2018-09-22T05:56:36.533Z,13.53
2018-09-22T05:59:06.683Z,12.20
2018-09-22T06:01:36.832Z,11.50
2018-09-22T06:04:06.809Z,11.30
2018-09-22T06:06:36.958Z,11.37
2018-09-22T06:09:09.745Z,10.77
2018-09-22T06:11:40.129Z,9.83
2018-09-22T06:14:10.460Z,9.67
2018-09-22T06:16:40.625Z,10.53
2018-09-22T06:19:10.765Z,9.50
2018-09-22T06:21:41.061Z,10.10
2018-09-22T06:24:11.250Z,9.70
2018-09-22T06:26:41.596Z,9.83
2018-09-22T06:29:12.138Z,9.47
2018-09-22T06:31:42.470Z,8.30
2018-09-22T06:34:12.566Z,9.23
2018-09-22T06:36:42.812Z,8.90
2018-09-22T06:39:13.386Z,8.43
2018-09-22T06:41:43.920Z,8.80
2018-09-22T06:44:14.416Z,7.93
2018-09-22T06:46:44.792Z,8.43
2018-09-22T06:49:15.005Z,7.90
2018-09-22T06:51:45.238Z,7.80
2018-09-22T06:54:15.360Z,8.50
2018-09-22T06:56:45.606Z,8.37
2018-09-22T06:59:15.872Z,9.37
2018-09-22T07:01:46.019Z,9.17
2018-09-22T07:04:16.167Z,8.73
2018-09-22T07:06:46.326Z,10.43
2018-09-22T07:09:16.501Z,10.87
2018-09-22T07:11:47.594Z,10.73
2018-09-22T07:14:17.774Z,10.83
2018-09-22T07:16:47.892Z,9.87
2018-09-22T07:19:18.294Z,10.90
2018-09-22T07:21:53.533Z,12.00
2018-09-22T07:24:23.874Z,12.03
2018-09-22T07:26:54.131Z,9.83
2018-09-22T07:29:24.179Z,10.57
2018-09-22T07:31:54.192Z,10.43
2018-09-22T07:34:24.151Z,10.20
2018-09-22T07:36:54.462Z,9.73
2018-09-22T07:39:24.727Z,9.50
2018-09-22T07:41:55.370Z,9.63
2018-09-22T07:44:25.603Z,9.60
2018-09-22T07:46:56.180Z,9.63
2018-09-22T07:49:26.812Z,10.17
2018-09-22T07:51:57.315Z,9.53
2018-09-22T07:54:28.122Z,8.03
2018-09-22T07:56:58.509Z,8.30
2018-09-22T07:59:29.460Z,9.03
2018-09-22T08:02:00.148Z,7.27
2018-09-22T08:04:30.267Z,6.80
2018-09-22T08:07:00.600Z,7.80
2018-09-22T08:09:30.966Z,7.53
2018-09-22T08:12:01.453Z,7.87
2018-09-22T08:14:31.821Z,9.63
2018-09-22T08:17:01.940Z,8.23
2018-09-22T08:19:32.066Z,7.67
2018-09-22T08:22:03.285Z,7.80
2018-09-22T08:24:33.462Z,9.80
2018-09-22T08:27:04.514Z,11.70
2018-09-22T08:29:34.994Z,11.17
2018-09-22T08:32:05.582Z,12.03
2018-09-22T08:34:35.703Z,7.63
2018-09-22T08:37:06.124Z,9.20
2018-09-22T08:39:36.549Z,10.83
2018-09-22T08:42:07.785Z,9.57
2018-09-22T08:44:37.947Z,9.30
2018-09-22T08:47:07.977Z,7.57
2018-09-22T08:49:38.528Z,8.23
2018-09-22T08:52:08.997Z,10.87
2018-09-22T08:54:38.914Z,8.43
2018-09-22T08:57:08.730Z,10.87
2018-09-22T08:59:38.630Z,11.20
2018-09-22T09:02:08.528Z,10.20
2018-09-22T09:04:38.337Z,10.20
2018-09-22T09:07:08.307Z,9.33
2018-09-22T09:09:38.401Z,9.30
2018-09-22T09:12:08.483Z,9.00
2018-09-22T09:14:38.550Z,8.40
2018-09-22T09:17:08.591Z,8.77
2018-09-22T09:19:39.057Z,9.27
2018-09-22T09:22:09.257Z,12.93
2018-09-22T09:24:39.342Z,11.50
2018-09-22T09:27:09.446Z,11.77
2018-09-22T09:29:39.841Z,11.60
2018-09-22T09:32:10.007Z,7.33
2018-09-22T09:34:40.452Z,7.73
2018-09-22T09:37:10.725Z,7.17
2018-09-22T09:39:40.914Z,6.43
2018-09-22T09:42:11.465Z,6.10
2018-09-22T09:44:42.011Z,5.40
2018-09-22T09:47:12.515Z,5.20
2018-09-22T09:49:42.924Z,4.80
2018-09-22T09:52:13.641Z,4.30
2018-09-22T09:54:43.869Z,4.50
2018-09-22T09:57:14.023Z,3.90
2018-09-22T09:59:44.485Z,5.20
2018-09-22T10:02:15.062Z,4.50
2018-09-22T10:04:45.558Z,5.17
2018-09-22T10:07:15.496Z,5.03
2018-09-22T10:09:46.045Z,5.23
2018-09-22T10:12:16.430Z,5.20
2018-09-22T10:14:46.715Z,4.62
2018-09-22T10:17:17.116Z,5.08
2018-09-22T10:19:47.695Z,5.05
2018-09-22T10:22:18.324Z,4.97
2018-09-22T10:24:48.790Z,5.00
2018-09-22T10:27:19.528Z,4.92
2018-09-22T10:29:49.778Z,4.80
2018-09-22T10:32:20.739Z,5.50
2018-09-22T10:34:52.508Z,5.15
2018-09-22T10:37:22.854Z,5.00
2018-09-22T10:39:53.242Z,4.65
2018-09-22T10:42:24.375Z,4.65
2018-09-22T10:44:54.985Z,4.55
2018-09-22T10:47:26.412Z,5.15
2018-09-22T10:49:56.664Z,5.58
2018-09-22T10:52:26.846Z,4.85
2018-09-22T10:54:57.116Z,4.58
2018-09-22T10:57:27.348Z,4.60
2018-09-22T10:59:57.604Z,4.67
2018-09-22T11:02:28.003Z,4.72
2018-09-22T11:04:58.281Z,4.65
2018-09-22T11:07:28.461Z,4.17
2018-09-22T11:09:58.671Z,4.67
2018-09-22T11:12:28.640Z,4.30
2018-09-22T11:14:58.639Z,4.58
2018-09-22T11:17:28.864Z,4.62
2018-09-22T11:19:59.221Z,4.17
2018-09-22T11:22:29.811Z,4.17
2018-09-22T11:25:00.074Z,4.28
2018-09-22T11:27:30.319Z,4.00
2018-09-22T11:30:01.080Z,4.05
2018-09-22T11:32:31.455Z,3.92
2018-09-22T11:35:02.097Z,4.10
2018-09-22T11:37:32.291Z,3.67
2018-09-22T11:40:02.440Z,3.98
2018-09-22T11:42:32.694Z,4.10
2018-09-22T11:45:03.374Z,4.53
2018-09-22T11:47:33.524Z,4.25
2018-09-22T11:50:03.859Z,4.05
2018-09-22T11:52:34.486Z,4.22
2018-09-22T11:55:05.012Z,5.40
2018-09-22T11:57:36.186Z,4.75
2018-09-22T12:00:07.109Z,4.05
2018-09-22T12:02:37.465Z,4.28
2018-09-22T12:05:08.282Z,3.95
2018-09-22T12:07:38.469Z,3.50
2018-09-22T12:10:09.687Z,4.30
2018-09-22T12:12:39.914Z,4.10
2018-09-22T12:15:11.066Z,3.60
2018-09-22T12:17:41.410Z,3.80
2018-09-22T12:20:11.742Z,4.83
2018-09-22T12:22:41.946Z,3.65
2018-09-22T12:25:12.403Z,3.58
2018-09-22T12:27:43.118Z,3.33
2018-09-22T12:30:13.629Z,3.42
2018-09-22T12:32:44.150Z,3.67
2018-09-22T12:35:14.513Z,3.10
2018-09-22T12:37:44.927Z,3.67
2018-09-22T12:40:15.295Z,3.67
2018-09-22T12:42:45.850Z,3.45
2018-09-22T12:45:16.485Z,3.50
2018-09-22T12:47:46.751Z,3.40
2018-09-22T12:50:17.056Z,3.37
2018-09-22T12:52:47.431Z,5.60
2018-09-22T12:55:17.643Z,3.60
2018-09-22T12:57:47.855Z,3.02
2018-09-22T13:00:17.922Z,3.17
2018-09-22T13:02:48.431Z,4.90
2018-09-22T13:05:19.111Z,3.20
2018-09-22T13:07:49.670Z,2.98
2018-09-22T13:10:19.910Z,3.00
2018-09-22T13:12:50.290Z,3.00
2018-09-22T13:15:20.708Z,3.10
2018-09-22T13:17:50.947Z,3.35
2018-09-22T13:20:21.190Z,2.77
2018-09-22T13:22:51.690Z,2.87
2018-09-22T13:25:21.732Z,3.12
2018-09-22T13:27:52.383Z,2.85
2018-09-22T13:30:22.490Z,3.22
2018-09-22T13:32:52.648Z,3.30
2018-09-22T13:35:23.035Z,3.87
2018-09-22T13:37:53.478Z,3.50
2018-09-22T13:40:23.759Z,2.70
2018-09-22T13:42:54.223Z,3.40
2018-09-22T13:45:24.756Z,4.00
2018-09-22T13:47:54.995Z,3.22
2018-09-22T13:50:25.387Z,3.58
2018-09-22T13:52:55.561Z,3.60
2018-09-22T13:55:25.824Z,3.30
2018-09-22T13:57:55.777Z,2.92
2018-09-22T14:00:26.027Z,3.02
2018-09-22T14:02:56.292Z,3.77
2018-09-22T14:05:26.583Z,3.58
2018-09-22T14:07:56.635Z,3.37
2018-09-22T14:10:26.927Z,3.60
2018-09-22T14:12:57.329Z,3.75
2018-09-22T14:15:27.636Z,4.17
2018-09-22T14:17:57.735Z,3.08
2018-09-22T14:20:27.758Z,3.60
2018-09-22T14:22:58.023Z,3.08
2018-09-22T14:25:28.585Z,2.95
2018-09-22T14:27:58.728Z,2.72
2018-09-22T14:30:28.982Z,2.90
2018-09-22T14:32:59.226Z,3.22
2018-09-22T14:35:29.476Z,3.10
2018-09-22T14:37:59.792Z,3.70
2018-09-22T14:40:29.997Z,3.70
2018-09-22T14:43:00.262Z,3.40
2018-09-22T14:45:30.361Z,3.40
2018-09-22T14:48:00.398Z,3.12
2018-09-22T14:50:30.635Z,3.80
2018-09-22T14:53:00.720Z,4.08
2018-09-22T14:55:31.138Z,6.28
2018-09-22T14:58:01.333Z,3.45
2018-09-22T15:00:31.493Z,3.30
2018-09-22T15:03:01.606Z,4.30
2018-09-22T15:05:31.827Z,2.98
2018-09-22T15:08:02.035Z,3.22
2018-09-22T15:10:31.963Z,6.45
2018-09-22T15:13:02.267Z,3.33
2018-09-22T15:15:32.716Z,2.83
2018-09-22T15:18:03.137Z,3.20
2018-09-22T15:20:33.271Z,2.95
2018-09-22T15:23:03.456Z,3.33
2018-09-22T15:25:33.635Z,3.45
2018-09-22T15:28:03.938Z,9.65
2018-09-22T15:30:34.293Z,4.25
2018-09-22T15:33:04.704Z,3.40
2018-09-22T15:35:34.790Z,3.40
2018-09-22T15:38:05.467Z,3.33
2018-09-22T15:40:35.769Z,3.02
2018-09-22T15:43:05.803Z,2.95
2018-09-22T15:45:36.474Z,3.35
2018-09-22T15:48:06.895Z,3.45
2018-09-22T15:50:36.969Z,3.20
2018-09-22T15:53:07.221Z,3.10
2018-09-22T15:55:37.575Z,3.08
2018-09-22T15:58:07.625Z,7.53
2018-09-22T16:00:37.774Z,14.10
2018-09-22T16:03:08.136Z,21.60
2018-09-22T16:05:38.491Z,12.90
2018-09-22T16:08:08.494Z,5.83
2018-09-22T16:10:38.509Z,5.57
2018-09-22T16:13:08.885Z,3.87
2018-09-22T16:15:39.290Z,3.97
2018-09-22T16:18:09.350Z,3.40
2018-09-22T16:20:39.638Z,3.53
2018-09-22T16:25:40.534Z,3.33
2018-09-22T16:28:10.993Z,3.10
2018-09-22T16:30:42.199Z,3.53
2018-09-22T16:33:12.425Z,3.93
2018-09-22T16:35:42.795Z,3.47
2018-09-22T16:38:13.033Z,3.33
2018-09-22T16:40:43.388Z,2.80
2018-09-22T16:43:13.641Z,4.33
2018-09-22T16:45:43.825Z,6.87
2018-09-22T16:48:13.981Z,4.37
2018-09-22T16:50:44.382Z,4.30
2018-09-22T16:53:14.444Z,3.80
2018-09-22T16:55:44.618Z,4.10
2018-09-22T16:58:14.628Z,3.90
2018-09-22T17:00:45.898Z,3.63
2018-09-22T17:03:16.056Z,3.77
2018-09-22T17:05:46.330Z,3.60
2018-09-22T17:08:16.484Z,3.97
2018-09-22T17:10:46.981Z,3.50
2018-09-22T17:13:17.179Z,6.63
2018-09-22T17:15:47.421Z,8.77
2018-09-22T17:18:17.406Z,7.57
2018-09-22T17:20:47.563Z,4.97
2018-09-22T17:23:17.503Z,3.87
2018-09-22T17:25:47.956Z,4.17
2018-09-22T17:28:18.371Z,3.40
2018-09-22T17:30:50.751Z,3.50
2018-09-22T17:33:21.027Z,17.70
2018-09-22T17:35:51.238Z,6.90
2018-09-22T17:38:21.387Z,4.97
2018-09-22T17:40:51.400Z,3.83
2018-09-22T17:43:21.538Z,4.03
2018-09-22T17:45:52.006Z,4.63
2018-09-22T17:48:22.309Z,4.50
2018-09-22T17:50:52.749Z,5.00
2018-09-22T17:53:22.779Z,4.87
2018-09-22T17:55:53.030Z,6.27
2018-09-22T17:58:23.233Z,5.77
2018-09-22T18:00:53.753Z,7.00
2018-09-22T18:03:24.229Z,8.03
2018-09-22T18:05:54.581Z,7.30
2018-09-22T18:08:24.902Z,6.93
2018-09-22T18:10:55.130Z,6.70
2018-09-22T18:13:25.115Z,6.13
2018-09-22T18:15:55.117Z,7.20
2018-09-22T18:18:25.258Z,6.63
2018-09-22T18:20:55.415Z,7.57
2018-09-22T18:23:26.370Z,6.67
2018-09-22T18:25:56.524Z,7.03
2018-09-22T18:28:26.632Z,6.83
2018-09-22T18:30:56.691Z,6.60
2018-09-22T18:33:26.914Z,6.47
2018-09-22T18:35:57.096Z,5.67
2018-09-22T18:38:27.214Z,6.37
2018-09-22T18:40:57.478Z,5.70
2018-09-22T18:43:29.263Z,5.23
2018-09-22T18:45:59.472Z,5.50
2018-09-22T18:48:29.774Z,5.43
2018-09-22T18:51:00.906Z,5.80
2018-09-22T18:53:31.734Z,5.70
2018-09-22T18:56:02.311Z,5.47
2018-09-22T18:58:32.389Z,5.90
2018-09-22T19:01:03.128Z,5.60
2018-09-22T19:03:34.327Z,6.10
2018-09-22T19:06:04.593Z,5.87
2018-09-22T19:08:35.326Z,6.20
2018-09-22T19:11:06.701Z,6.47
2018-09-22T19:13:47.271Z,6.50
2018-09-22T19:16:22.793Z,6.47
2018-09-22T19:19:29.900Z,6.07
2018-09-22T19:22:06.631Z,6.23
2018-09-22T19:24:44.636Z,6.67
2018-09-22T19:27:21.162Z,6.40
2018-09-22T19:30:07.203Z,6.30
2018-09-22T19:32:50.643Z,6.50
2018-09-22T19:35:26.192Z,7.17
2018-09-22T19:38:01.827Z,7.23
2018-09-22T19:40:45.712Z,7.03
2018-09-22T19:44:24.001Z,8.57
2018-09-22T19:47:07.346Z,8.20
2018-09-22T19:49:44.177Z,9.10
2018-09-22T19:52:19.608Z,7.53
2018-09-22T19:54:51.336Z,7.93
2018-09-22T19:57:21.622Z,7.90
2018-09-22T19:59:51.725Z,7.30
2018-09-22T20:02:22.129Z,7.80
2018-09-22T20:04:52.899Z,7.03
2018-09-22T20:07:25.421Z,7.03
2018-09-22T20:09:57.431Z,7.37
2018-09-22T20:12:28.969Z,6.40
2018-09-22T20:15:01.183Z,7.10
2018-09-22T20:17:33.910Z,7.00
2018-09-22T20:20:05.915Z,7.53
2018-09-22T20:22:37.601Z,7.17
2018-09-22T20:25:09.329Z,7.70
2018-09-22T20:27:40.805Z,7.70
2018-09-22T20:30:12.919Z,7.80
2018-09-22T20:32:45.151Z,8.30
2018-09-22T20:35:16.598Z,7.80
2018-09-22T20:37:47.268Z,7.20
2018-09-22T20:40:19.290Z,7.90
2018-09-22T20:42:50.547Z,6.80
2018-09-22T20:45:22.869Z,7.37
2018-09-22T20:47:54.340Z,7.80
2018-09-22T20:50:25.807Z,8.33
2018-09-22T20:52:57.860Z,7.70
2018-09-22T20:55:29.876Z,7.63
2018-09-22T20:58:01.508Z,7.77
2018-09-22T21:00:32.991Z,7.23
2018-09-22T21:03:04.276Z,7.67
2018-09-22T21:05:36.659Z,7.07
2018-09-22T21:08:08.551Z,7.30
2018-09-22T21:10:39.045Z,7.03
2018-09-22T21:13:10.844Z,7.37
2018-09-22T21:15:42.513Z,7.17
2018-09-22T21:18:14.093Z,7.83
2018-09-22T21:20:45.691Z,7.77
2018-09-22T21:23:16.566Z,8.33
2018-09-22T21:25:48.315Z,7.63
2018-09-22T21:28:20.065Z,7.27
2018-09-22T21:30:52.689Z,7.80
2018-09-22T21:33:24.881Z,9.67
2018-09-22T21:35:55.919Z,8.60
2018-09-22T21:38:27.368Z,8.37
2018-09-22T21:40:59.235Z,11.40
2018-09-22T21:43:30.389Z,16.93
2018-09-22T21:46:01.425Z,16.70
2018-09-22T21:48:32.085Z,14.33
2018-09-22T21:51:03.092Z,13.07
2018-09-22T21:53:33.624Z,9.90
2018-09-22T21:56:04.992Z,9.70
2018-09-22T21:58:36.618Z,8.90
2018-09-22T22:01:12.367Z,8.60
2018-09-22T22:03:43.784Z,8.60
2018-09-22T22:06:15.417Z,8.70
2018-09-22T22:08:46.580Z,9.37
2018-09-22T22:11:17.725Z,7.70
2018-09-22T22:13:49.524Z,7.60
2018-09-22T22:16:20.671Z,8.57
2018-09-22T22:18:52.177Z,8.17
2018-09-22T22:21:23.289Z,8.00
2018-09-22T22:23:55.233Z,8.53
2018-09-22T22:26:26.738Z,7.97
2018-09-22T22:28:58.548Z,7.97
2018-09-22T22:31:29.257Z,7.37
2018-09-22T22:34:00.282Z,8.23
2018-09-22T22:36:32.181Z,7.73
2018-09-22T22:39:03.631Z,7.67
2018-09-22T22:41:36.278Z,7.77
2018-09-22T22:44:07.907Z,8.23
2018-09-22T22:46:39.179Z,8.13
2018-09-22T22:49:10.772Z,7.93
2018-09-22T22:51:42.138Z,9.07
2018-09-22T22:54:13.348Z,8.60
2018-09-22T22:56:44.786Z,9.97
2018-09-22T22:59:16.115Z,9.77
2018-09-22T23:01:47.149Z,10.23
2018-09-22T23:04:18.276Z,9.63
2018-09-22T23:06:49.681Z,11.80
2018-09-22T23:09:20.583Z,11.90
2018-09-22T23:11:52.491Z,11.37
2018-09-22T23:14:23.632Z,11.17
2018-09-22T23:16:54.903Z,12.60
2018-09-22T23:19:26.664Z,13.00
2018-09-22T23:21:57.807Z,12.80
2018-09-22T23:24:29.124Z,14.20
2018-09-22T23:27:00.284Z,14.80
2018-09-22T23:29:31.313Z,14.67
2018-09-22T23:32:02.862Z,12.40
2018-09-22T23:34:33.733Z,13.07
2018-09-22T23:37:05.196Z,14.23
2018-09-22T23:39:36.361Z,13.77
2018-09-22T23:42:07.101Z,13.90
2018-09-22T23:44:38.343Z,16.13
2018-09-22T23:47:09.383Z,14.73
2018-09-22T23:49:39.833Z,14.40
2018-09-22T23:52:11.429Z,14.07
2018-09-22T23:54:43.230Z,15.37
2018-09-22T23:57:14.357Z,16.40
2018-09-22T23:59:45.602Z,15.83
